KBTL

W K Kellogg Airport

Battle Creek, Michigan, USA
METAR KBTL 160053Z 04006KT 10SM CLR 01/M01 A3016 RMK AO2 SLP221 T00061011
Observed Flight Rules
Dec-16 @ 00:53 UTC (22 minutes ago) Visual Flight Rules
Wind Visibility Clouds
40° at 6 knots 10 miles
  • Clear skies
Temperatures Readings
Current 1°C / 34°F
Dewpoint -1°C / 30°F
Humidity 87%
Altimeter 30.16" Hg
Pressure 1022.1 hPa
Elevation 290
METAR KBTL 160053Z 04006KT 10SM CLR 01/M01 A3016 RMK AO2 SLP221 T00061011
Observed Flight Rules
Dec-16 @ 00:53 UTC
(22 minutes ago)
VFR
Wind Visibility
40° at 6 knots 10 miles
Clouds
  • Clear skies
Temperature Dewpoint
1°C / 34°F -1°C / 30°F
Humidity Altimeter Pressure
87% 30.16" Hg 1022.1 hPa